Altoona, Iowa
Current Conditions -  °F | °C
As of 6:15 AM on Friday 21 Nov 2014 (Local Time) from KIKV Reporting Station
Clear Clear  
Wind Chill: 12°   Ceiling: Unl
Heat Index: 12°   Visibility: 10mi
Dew Point:   Wind: 3mph
Humidity: 79%   Direction: 150°SSE
Pressure: 30.31"   Gusts: NA
Location:  41.64°N, 93.46°W
Report Text: KIKV 211215Z AUTO 15003KT 10SM CLR M11/M14 A3031 RMK AO2
Loading
Personal Weather Stations






























Interactive Weather Map New forecast layout! Learn more

10-Day Weather Forecast

Advertisements
Track Severe Weather on mobile